Time;durP1;ratioP1;P1;durP2;ratioP2;P2;SDS_P1;SDS_P2;PMS_P1;PMS_P2;Temp;Humidity;BMP_temperature;BMP_pressure;BME280_temperature;BME280_humidity;BME280_pressure;Samples;Min_cycle;Max_cycle;Signal;HPM_P1;HPM_P2
2022/02/04 00:20:55;;;;;;;3.55;2.72;;;;;;;0.57;45.21;94246.25;5024588;28;20039;-74
2022/02/04 00:23:25;;;;;;;3.20;2.63;;;;;;;0.82;45.14;94264.16;5018190;28;20576;-74
2022/02/04 00:26:04;;;;;;;4.82;2.60;;;;;;;0.56;45.05;94240.22;5027339;28;20508;-74
2022/02/04 00:31:17;;;;;;;7.47;2.63;;;;;;;0.62;45.25;94275.91;5026191;28;20492;-74
2022/02/04 00:33:46;;;;;;;5.43;3.33;;;;;;;0.65;45.23;94275.44;5020887;28;20051;-74
2022/02/04 00:36:19;;;;;;;4.13;3.30;;;;;;;0.63;45.03;94281.94;5021683;28;20493;-75
2022/02/04 00:38:48;;;;;;;3.85;2.65;;;;;;;0.68;44.91;94256.63;5026530;28;20042;-74
2022/02/04 00:41:17;;;;;;;3.55;3.22;;;;;;;0.58;45.14;94261.72;5027133;28;20324;-74
2022/02/04 00:43:43;;;;;;;3.80;2.80;;;;;;;0.29;45.23;94210.53;5026870;28;20413;-73
2022/02/04 00:46:25;;;;;;;3.05;2.80;;;;;;;0.69;45.09;94266.06;5020464;28;20025;-73
2022/02/04 01:26:18;;;;;;;5.75;2.80;;;;;;;-0.26;46.17;94179.84;5027804;28;20082;-74
2022/02/04 01:28:46;;;;;;;5.03;2.50;;;;;;;0.06;46.82;94226.38;5031706;28;20120;-74
2022/02/04 01:31:15;;;;;;;10.90;4.78;;;;;;;0.27;46.24;94246.59;5029153;28;20032;-73
2022/02/04 01:33:41;;;;;;;8.07;4.53;;;;;;;0.07;46.16;94207.03;5025902;28;20036;-76
2022/02/04 01:36:06;;;;;;;7.13;4.75;;;;;;;0.30;45.88;94230.44;5019447;28;20418;-76
2022/02/04 01:38:32;;;;;;;10.63;6.43;;;;;;;0.14;45.75;94194.59;5025285;28;20064;-75
2022/02/04 01:40:58;;;;;;;3.55;3.05;;;;;;;0.19;45.85;94226.06;5028658;28;20146;-74
2022/02/04 01:43:24;;;;;;;7.18;4.20;;;;;;;-0.14;45.48;94161.50;5030867;28;20072;-74
2022/02/04 01:45:56;;;;;;;7.78;5.13;;;;;;;0.25;45.56;94227.75;5026218;28;20139;-73
2022/02/04 01:48:23;;;;;;;7.35;2.95;;;;;;;0.30;45.15;94199.81;5030548;28;20049;-74
2022/02/04 01:50:51;;;;;;;3.17;2.80;;;;;;;0.09;45.19;94163.13;5022975;28;20601;-74
2022/02/04 01:53:19;;;;;;;6.43;3.67;;;;;;;0.32;45.28;94207.44;5024414;28;20048;-77
2022/02/04 01:55:45;;;;;;;9.98;6.30;;;;;;;0.63;44.59;94237.44;5043337;28;20037;-75
2022/02/04 01:58:11;;;;;;;4.45;3.35;;;;;;;0.59;44.64;94233.72;5025838;28;20116;-74
2022/02/04 02:00:39;;;;;;;3.40;2.80;;;;;;;0.21;45.17;94216.13;5032286;28;20444;-74
2022/02/04 02:03:07;;;;;;;3.55;2.60;;;;;;;-0.20;45.78;94188.56;5027742;28;20083;-75
2022/02/04 02:05:33;;;;;;;7.30;3.90;;;;;;;0.06;45.71;94201.00;5025522;28;20353;-73
2022/02/04 02:08:10;;;;;;;4.20;3.40;;;;;;;0.34;45.37;94227.09;5025462;28;20048;-73
2022/02/04 02:10:36;;;;;;;3.47;2.80;;;;;;;0.03;45.63;94193.66;5030416;28;20051;-74
2022/02/04 02:59:09;;;;;;;4.30;2.83;;;;;;;-0.22;46.09;94182.78;5024361;28;20559;-74
2022/02/04 03:01:34;;;;;;;3.22;2.83;;;;;;;0.05;46.25;94222.19;5022504;28;20048;-73
2022/02/04 03:04:05;;;;;;;5.50;3.63;;;;;;;-0.02;46.41;94198.00;5025738;28;20549;-74
2022/02/04 03:06:30;;;;;;;4.70;3.10;;;;;;;0.07;46.24;94194.75;5021763;28;20101;-73
2022/02/04 03:08:56;;;;;;;5.53;3.03;;;;;;;0.15;45.71;94170.03;4981321;28;1273494;-74
2022/02/04 03:11:21;;;;;;;8.00;3.78;;;;;;;0.33;45.58;94186.25;5026581;28;20029;-75
2022/02/04 03:13:47;;;;;;;4.38;3.28;;;;;;;0.42;45.21;94193.69;5024769;28;20257;-74
2022/02/04 03:16:16;;;;;;;4.60;3.58;;;;;;;0.39;45.36;94192.38;5025220;28;20063;-74
2022/02/04 03:18:45;;;;;;;4.80;2.67;;;;;;;0.58;45.30;94201.53;5023283;28;20616;-74
2022/02/04 03:21:16;;;;;;;4.28;3.05;;;;;;;0.68;44.90;94191.19;5022129;28;20141;-74
2022/02/04 03:23:46;;;;;;;5.20;3.85;;;;;;;0.84;44.25;94175.69;5026969;28;20044;-74
2022/02/04 03:28:56;;;;;;;4.97;3.35;;;;;;;1.00;43.68;94195.75;5025250;28;20132;-74
2022/02/04 03:31:23;;;;;;;5.15;3.42;;;;;;;0.73;43.71;94161.66;5023620;28;20404;-73
2022/02/04 03:33:49;;;;;;;8.00;3.47;;;;;;;0.89;43.92;94180.97;5029372;28;20036;-74
2022/02/04 03:36:16;;;;;;;6.18;3.00;;;;;;;1.02;44.00;94199.72;5023218;28;20053;-74
2022/02/04 03:38:44;;;;;;;6.60;3.50;;;;;;;0.70;44.22;94167.38;5025851;28;20083;-74
2022/02/04 03:41:11;;;;;;;5.35;3.80;;;;;;;-0.72;46.33;94167.03;5028441;28;20033;-73
2022/02/04 03:43:37;;;;;;;7.28;4.80;;;;;;;-0.12;46.81;94201.25;5022000;28;20366;-74
2022/02/04 03:46:02;;;;;;;5.28;3.95;;;;;;;0.33;45.33;94188.88;5022498;28;20024;-74
2022/02/04 03:48:28;;;;;;;8.82;4.97;;;;;;;0.20;45.52;94178.72;5025461;28;20725;-73
2022/02/04 03:50:53;;;;;;;7.45;4.10;;;;;;;0.54;44.75;94197.81;5023581;28;20033;-73
2022/02/04 03:53:18;;;;;;;8.20;4.68;;;;;;;0.19;45.31;94182.41;5021453;28;20845;-74
2022/02/04 03:55:44;;;;;;;9.30;5.63;;;;;;;0.28;44.98;94174.94;5023559;28;20507;-77
2022/02/04 03:58:13;;;;;;;13.60;7.53;;;;;;;0.32;44.71;94155.09;5017236;28;20032;-75
2022/02/04 04:00:39;;;;;;;17.42;9.00;;;;;;;0.13;44.54;94125.81;5029162;28;20075;-76
2022/02/04 04:03:06;;;;;;;15.73;7.82;;;;;;;0.57;44.44;94173.75;5027517;28;20127;-76
2022/02/04 04:05:36;;;;;;;12.93;7.55;;;;;;;0.68;43.67;94165.00;5026809;28;20029;-75
2022/02/04 04:08:01;;;;;;;10.07;6.07;;;;;;;0.73;43.62;94157.22;5027335;28;20524;-77
2022/02/04 04:10:28;;;;;;;11.10;5.60;;;;;;;0.69;43.46;94150.09;5014344;28;20214;-75
2022/02/04 04:12:57;;;;;;;13.88;5.38;;;;;;;0.74;43.78;94184.19;5024710;28;20305;-75
2022/02/04 04:15:23;;;;;;;20.75;8.38;;;;;;;0.02;44.91;94170.34;5026746;28;20044;-78
2022/02/04 04:17:49;;;;;;;17.15;9.27;;;;;;;0.08;45.07;94179.84;5023781;28;20033;-75
2022/02/04 04:20:17;;;;;;;13.20;6.47;;;;;;;0.43;44.15;94175.13;5027254;28;20036;-75
2022/02/04 04:22:43;;;;;;;10.07;5.93;;;;;;;0.45;44.16;94175.69;5023979;28;20047;-75
2022/02/04 04:25:10;;;;;;;15.13;6.53;;;;;;;0.44;43.76;94147.94;5024430;28;20037;-75
2022/02/04 04:27:36;;;;;;;16.38;7.95;;;;;;;0.57;43.67;94184.22;5024806;28;20037;-73
2022/02/04 04:30:03;;;;;;;18.42;9.77;;;;;;;0.35;43.72;94157.22;5025635;28;20495;-75
2022/02/04 04:32:29;;;;;;;18.10;8.50;;;;;;;0.48;43.42;94166.56;5029142;28;20104;-75
2022/02/04 04:34:55;;;;;;;11.68;6.45;;;;;;;0.65;43.33;94181.19;5022842;28;20329;-76
2022/02/04 04:37:21;;;;;;;12.88;6.55;;;;;;;0.69;43.16;94181.50;5026519;28;20025;-75
2022/02/04 04:42:30;;;;;;;19.13;8.45;;;;;;;0.32;43.56;94145.44;5025890;28;20095;-78
2022/02/04 05:29:00;;;;;;;23.88;11.82;;;;;;;-0.40;46.40;94204.72;4978834;28;20705;-73
2022/02/04 05:31:25;;;;;;;;;;;;;;;-0.17;45.64;94204.56;4973755;28;20026;-75
2022/02/04 05:33:51;;;;;;;17.10;9.52;;;;;;;-0.36;46.22;94205.81;4991865;28;19943;-73
2022/02/04 05:36:17;;;;;;;14.32;8.10;;;;;;;-0.28;45.90;94181.09;5018993;28;20048;-73
2022/02/04 05:38:43;;;;;;;14.77;7.85;;;;;;;-0.13;45.57;94184.75;5027483;28;20065;-73
2022/02/04 05:41:11;;;;;;;12.43;7.07;;;;;;;-0.56;45.95;94148.00;5021809;28;20674;-73
2022/02/04 05:43:40;;;;;;;18.00;8.73;;;;;;;-0.21;46.38;94206.09;5027389;28;20064;-73
2022/02/04 05:46:16;;;;;;;12.05;7.68;;;;;;;-0.32;46.24;94180.78;5023447;28;20025;-74
2022/02/04 05:48:46;;;;;;;18.17;8.45;;;;;;;-0.07;46.00;94204.75;5022757;28;20049;-73
2022/02/04 05:53:57;;;;;;;20.15;10.95;;;;;;;-0.07;46.09;94188.25;5024089;28;20069;-75
2022/02/04 06:04:13;;;;;;;20.35;11.25;;;;;;;0.28;45.46;94191.41;5030703;28;20336;-75
2022/02/04 06:22:20;;;;;;;13.18;8.15;;;;;;;0.20;45.65;94204.88;5029238;28;20035;-75
2022/02/04 06:24:47;;;;;;;13.07;7.53;;;;;;;0.38;45.59;94227.41;5029569;28;20017;-76
2022/02/04 06:27:13;;;;;;;15.18;8.43;;;;;;;0.39;45.25;94218.53;5025501;28;20118;-78
2022/02/04 06:29:42;;;;;;;14.35;7.70;;;;;;;0.36;45.31;94213.75;5024427;28;20136;-76
2022/02/04 06:32:07;;;;;;;19.38;9.90;;;;;;;-0.32;46.36;94230.47;5023988;28;20038;-73
2022/02/04 06:34:33;;;;;;;28.10;10.80;;;;;;;-1.73;49.57;94217.19;5024037;28;20513;-77
2022/02/04 06:36:58;;;;;;;19.88;11.85;;;;;;;-0.92;48.53;94245.00;5025394;28;20611;-76
2022/02/04 06:39:24;;;;;;;19.60;11.85;;;;;;;-0.43;47.64;94228.69;5023266;28;20036;-76
2022/02/04 06:41:49;;;;;;;19.10;9.98;;;;;;;-0.37;47.43;94240.81;5027905;28;20033;-77
2022/02/04 06:44:16;;;;;;;19.55;12.23;;;;;;;-0.59;48.24;94250.34;5024127;28;20463;-75
2022/02/04 06:46:42;;;;;;;19.10;11.43;;;;;;;-0.12;46.62;94238.66;5021880;28;20045;-75
2022/02/04 06:49:07;;;;;;;19.25;10.98;;;;;;;0.21;45.83;94242.31;5022664;28;20028;-75
2022/02/04 06:51:35;;;;;;;24.33;12.65;;;;;;;-0.29;46.56;94210.91;5026140;28;20111;-76
2022/02/04 06:54:01;;;;;;;14.63;10.18;;;;;;;0.17;45.00;94235.97;5017954;28;20063;-76
2022/02/04 06:56:26;;;;;;;25.45;11.90;;;;;;;-0.05;45.51;94212.34;5031425;28;20037;-75
2022/02/04 06:58:51;;;;;;;24.85;12.10;;;;;;;-0.02;46.01;94237.22;5020777;28;20049;-76
2022/02/04 07:01:17;;;;;;;19.85;11.27;;;;;;;-0.26;47.02;94237.38;5020159;28;20032;-76
2022/02/04 07:03:42;;;;;;;20.42;9.85;;;;;;;0.03;46.24;94247.78;5025328;28;20028;-75
2022/02/04 07:06:11;;;;;;;19.30;12.30;;;;;;;0.13;45.28;94240.09;5021677;28;20110;-75
2022/02/04 07:17:15;;;;;;;45.83;22.15;;;;;;;0.15;45.65;94232.81;4984487;28;20038;-77
2022/02/04 07:19:47;;;;;;;34.53;18.20;;;;;;;-0.14;46.41;94245.91;5014232;28;20043;-76
2022/02/04 07:22:16;;;;;;;27.48;15.35;;;;;;;0.25;45.66;94253.91;5020566;28;20031;-75
2022/02/04 07:24:43;;;;;;;31.38;17.02;;;;;;;0.03;45.66;94229.47;5021857;28;20505;-74
2022/02/04 07:27:11;;;;;;;31.92;16.73;;;;;;;0.01;46.01;94223.69;5022355;28;20047;-73
2022/02/04 07:29:37;;;;;;;36.05;17.13;;;;;;;-0.00;46.02;94201.19;5026645;28;20037;-73
2022/02/04 07:32:08;;;;;;;32.92;15.88;;;;;;;0.06;46.37;94234.22;5020381;28;20044;-74
2022/02/04 07:35:00;;;;;;;25.65;14.05;;;;;;;0.18;46.49;94248.81;5023423;28;20407;-74
2022/02/04 07:42:56;;;;;;;22.83;11.55;;;;;;;0.49;46.15;94252.69;5015181;28;20043;-74
2022/02/04 07:45:22;;;;;;;19.67;10.25;;;;;;;0.70;45.87;94256.38;5020413;28;20094;-73
2022/02/04 07:47:51;;;;;;;19.50;11.07;;;;;;;-0.40;48.11;94266.63;5017885;28;20456;-75
2022/02/04 07:50:20;;;;;;;16.02;9.90;;;;;;;-0.21;48.00;94265.41;5020953;28;20476;-74
2022/02/04 07:52:47;;;;;;;19.20;9.77;;;;;;;-0.77;48.56;94261.75;5023338;28;20037;-74
2022/02/04 07:55:12;;;;;;;17.08;9.82;;;;;;;-1.06;49.73;94253.09;5023695;28;20025;-73
2022/02/04 07:57:38;;;;;;;12.85;9.07;;;;;;;-0.90;49.61;94245.56;5016486;28;20449;-74
2022/02/04 08:00:04;;;;;;;12.07;8.52;;;;;;;-0.89;49.81;94232.28;5017958;28;20041;-74
2022/02/04 08:02:30;;;;;;;17.98;9.77;;;;;;;-1.06;50.04;94232.19;5026463;28;20045;-75
2022/02/04 08:05:01;;;;;;;16.70;10.32;;;;;;;-1.22;50.55;94247.78;5016992;28;20041;-74
2022/02/04 08:07:30;;;;;;;19.30;9.68;;;;;;;-0.95;49.88;94249.66;5023633;28;20017;-74
2022/02/04 08:47:46;;;;;;;11.25;7.85;;;;;;;-1.83;51.56;94183.84;5017707;28;20696;-77
2022/02/04 08:49:59;;;;;;;23.98;10.27;;;;;;;-1.30;51.36;94220.22;5012389;28;20041;-73
2022/02/04 08:55:19;;;;;;;14.75;9.52;;;;;;;-0.51;50.16;94213.41;5019000;28;20028;-75
2022/02/04 09:00:28;;;;;;;14.55;8.45;;;;;;;-0.39;48.75;94242.09;5018771;28;20057;-76
2022/02/04 09:02:58;;;;;;;10.60;7.97;;;;;;;0.16;48.28;94237.78;5010672;28;20646;-76
2022/02/04 09:05:33;;;;;;;13.77;8.75;;;;;;;-0.04;48.12;94207.94;5015878;28;20471;-75
2022/02/04 09:10:39;;;;;;;13.38;7.65;;;;;;;-0.10;47.80;94202.63;5018239;28;20449;-76
2022/02/04 09:23:32;;;;;;;18.73;9.48;;;;;;;-0.31;47.50;94153.63;5020270;28;20044;-75
2022/02/04 09:26:08;;;;;;;16.77;9.43;;;;;;;-0.05;47.96;94212.34;5015709;28;20705;-73
2022/02/04 09:28:35;;;;;;;13.93;8.70;;;;;;;-0.45;48.08;94181.09;5017753;28;20152;-76
2022/02/04 09:31:01;;;;;;;14.05;9.30;;;;;;;-0.33;48.76;94213.19;5024251;28;20438;-74
2022/02/04 09:33:26;;;;;;;17.95;9.00;;;;;;;-0.39;48.46;94206.31;5024532;28;20044;-76
2022/02/04 09:35:51;;;;;;;18.20;8.95;;;;;;;-0.02;48.24;94211.06;5021639;28;20068;-73
2022/02/04 09:38:17;;;;;;;19.15;8.80;;;;;;;-0.02;47.75;94179.69;5020509;28;20044;-74
2022/02/04 09:40:42;;;;;;;16.02;9.35;;;;;;;-0.10;47.86;94205.22;5021841;28;20050;-75
2022/02/04 09:43:07;;;;;;;17.30;9.77;;;;;;;-0.40;48.30;94194.25;5022113;28;20102;-74
2022/02/04 09:45:36;;;;;;;16.83;9.10;;;;;;;0.78;46.14;94199.19;5022704;28;20083;-77
2022/02/04 09:48:05;;;;;;;18.52;9.73;;;;;;;1.10;45.30;94195.88;5022554;28;20033;-76
2022/02/04 09:50:33;;;;;;;15.32;8.90;;;;;;;0.79;45.27;94198.13;5032900;28;20454;-73
2022/02/04 10:04:50;;;;;;;16.70;10.43;;;;;;;1.40;44.57;94198.03;5019135;28;20040;-76
2022/02/04 10:12:38;;;;;;;23.33;12.65;;;;;;;1.27;44.37;94183.50;5017683;28;20056;-73
2022/02/04 10:15:25;;;;;;;23.45;12.40;;;;;;;1.98;44.42;94184.97;5018638;28;20033;-74
2022/02/04 10:18:10;;;;;;;23.52;11.85;;;;;;;2.59;43.34;94174.13;5024557;28;20259;-76
2022/02/04 10:20:41;;;;;;;21.80;12.47;;;;;;;2.49;42.97;94170.41;5026330;28;20509;-74
2022/02/04 10:23:07;;;;;;;20.98;11.10;;;;;;;2.99;42.45;94165.66;5020791;28;20042;-73
2022/02/04 10:25:36;;;;;;;20.40;10.38;;;;;;;3.20;42.43;94165.44;5021152;28;20029;-74
2022/02/04 10:28:20;;;;;;;17.42;11.07;;;;;;;3.28;41.29;94138.66;5018742;28;20026;-73
2022/02/04 10:31:07;;;;;;;24.63;11.85;;;;;;;3.59;40.75;94152.66;5024359;28;20052;-75
2022/02/04 10:33:33;;;;;;;17.25;10.02;;;;;;;3.76;40.09;94147.97;5016069;28;20824;-74
2022/02/04 10:36:00;;;;;;;17.20;10.13;;;;;;;3.79;40.47;94151.91;5016009;28;20583;-73
2022/02/04 10:38:38;;;;;;;15.93;9.23;;;;;;;3.67;39.17;94132.97;5021795;28;20045;-75
2022/02/04 10:41:16;;;;;;;17.23;10.32;;;;;;;3.18;40.36;94108.94;5020122;28;20130;-75
2022/02/04 10:52:24;;;;;;;22.10;12.18;;;;;;;2.18;42.77;94110.88;5013828;28;20048;-75
2022/02/04 10:58:15;;;;;;;21.63;11.75;;;;;;;2.27;42.92;94119.84;5017884;28;20515;-75
2022/02/04 11:00:41;;;;;;;26.02;12.55;;;;;;;1.92;42.49;94054.03;5015134;28;20034;-76
2022/02/04 11:03:10;;;;;;;25.33;13.00;;;;;;;2.65;42.56;94126.59;5021184;28;20425;-75
2022/02/04 11:05:56;;;;;;;32.25;15.20;;;;;;;2.08;44.17;94102.94;5017988;28;20033;-75
2022/02/04 11:11:16;;;;;;;32.70;15.20;;;;;;;2.62;43.11;94105.31;5014517;28;20044;-76
2022/02/04 11:36:06;;;;;;;26.83;14.25;;;;;;;1.97;45.17;94088.16;4992095;28;20359;-75
2022/02/04 11:55:16;;;;;;;24.42;13.90;;;;;;;2.41;43.10;94078.97;5021927;28;20040;-74
2022/02/04 11:57:56;;;;;;;;;;;;;;;2.62;43.58;94079.06;5010295;28;20115;-74
2022/02/04 12:00:30;;;;;;;24.98;13.75;;;;;;;2.72;43.36;94073.84;5015218;28;19995;-74
2022/02/04 12:02:56;;;;;;;31.77;13.57;;;;;;;3.39;42.03;94087.69;5011429;28;20036;-74
2022/02/04 12:05:21;;;;;;;30.38;14.00;;;;;;;3.87;40.62;94085.59;5019291;28;20068;-73
2022/02/04 12:07:55;;;;;;;25.95;15.93;;;;;;;4.03;41.01;94074.00;5014876;28;20140;-75
2022/02/04 12:10:24;;;;;;;30.95;16.55;;;;;;;3.95;40.92;94029.00;5017729;28;20798;-74
2022/02/04 12:12:59;;;;;;;23.90;15.68;;;;;;;4.62;40.47;94068.09;5019394;28;20408;-73
2022/02/04 12:15:30;;;;;;;29.60;14.98;;;;;;;4.58;39.42;94064.41;5014697;28;20037;-76
2022/02/04 12:18:00;;;;;;;35.20;15.95;;;;;;;4.46;39.23;94056.00;5023910;28;20031;-77
2022/02/04 12:23:31;;;;;;;27.33;16.63;;;;;;;4.19;40.21;94054.50;5011999;28;20029;-76
2022/02/04 12:26:12;;;;;;;26.30;15.55;;;;;;;4.09;40.43;94057.16;5016560;28;20033;-74
2022/02/04 12:29:05;;;;;;;31.40;14.90;;;;;;;3.78;41.16;94055.59;5026989;28;20119;-74
2022/02/04 12:31:36;;;;;;;22.98;15.18;;;;;;;3.41;42.06;94029.59;5018117;28;20385;-73
2022/02/04 12:34:06;;;;;;;29.33;16.70;;;;;;;4.02;41.34;94037.41;5019647;28;20053;-74
2022/02/04 12:36:33;;;;;;;34.85;16.63;;;;;;;4.03;42.04;94033.72;5023141;28;20531;-74
2022/02/04 12:39:10;;;;;;;37.45;17.77;;;;;;;3.09;42.23;94027.19;5015415;28;20553;-74
2022/02/04 12:41:48;;;;;;;33.03;16.23;;;;;;;3.32;42.95;94041.69;5015731;28;20042;-73
2022/02/04 12:44:23;;;;;;;24.35;16.38;;;;;;;3.29;42.69;94042.19;5006871;28;20033;-77
2022/02/04 12:46:59;;;;;;;29.87;17.37;;;;;;;2.73;43.58;93991.41;5024547;28;20541;-77
2022/02/04 12:49:27;;;;;;;27.17;16.42;;;;;;;2.56;43.73;93964.56;5022155;28;20044;-76
2022/02/04 12:54:29;;;;;;;37.10;17.60;;;;;;;3.12;43.02;94041.66;5014046;28;20107;-74
2022/02/04 12:58:08;;;;;;;29.45;17.27;;;;;;;3.12;42.97;94028.50;5020875;28;20040;-76
2022/02/04 13:08:25;;;;;;;34.80;17.52;;;;;;;4.89;40.50;94042.16;5017174;28;20559;-78
2022/02/04 13:11:03;;;;;;;29.00;15.07;;;;;;;5.14;40.74;94034.09;5013981;28;20057;-77
2022/02/04 13:13:36;;;;;;;33.08;18.60;;;;;;;5.05;40.11;94017.28;5028333;28;20033;-75
2022/02/04 13:16:02;;;;;;;40.13;17.25;;;;;;;5.20;40.34;94023.50;5031759;28;20082;-77
2022/02/04 13:18:27;;;;;;;32.97;16.90;;;;;;;4.84;40.63;94001.84;5028606;28;20722;-76
2022/02/04 13:20:56;;;;;;;33.95;16.33;;;;;;;4.52;41.09;93989.88;5029523;28;20045;-76
2022/02/04 13:23:27;;;;;;;28.00;15.25;;;;;;;4.58;40.90;93998.56;5022330;28;20037;-76
2022/02/04 13:25:57;;;;;;;29.92;16.55;;;;;;;4.46;41.79;94008.59;5034712;28;20037;-75
2022/02/04 13:28:44;;;;;;;26.40;17.17;;;;;;;4.70;40.95;93993.75;5023717;28;20133;-76
2022/02/04 13:31:20;;;;;;;31.00;16.77;;;;;;;4.65;41.14;93986.66;5027443;28;20672;-76
2022/02/04 13:33:46;;;;;;;33.88;16.02;;;;;;;4.22;41.14;93967.06;5018608;28;20446;-78
2022/02/04 13:39:07;;;;;;;26.42;14.88;;;;;;;4.21;41.48;93970.75;5022639;28;20041;-75
2022/02/04 13:44:29;;;;;;;24.98;15.70;;;;;;;3.66;42.96;93942.78;5019548;28;20135;-79
2022/02/04 13:47:10;;;;;;;21.10;15.05;;;;;;;3.68;43.17;93992.47;5020438;28;20041;-78
2022/02/04 13:53:32;;;;;;;26.23;14.70;;;;;;;3.84;42.96;93968.50;4984910;28;20044;-79
2022/02/04 13:58:15;;;;;;;30.48;15.45;;;;;;;4.91;41.07;93989.16;5024031;28;20021;-76
2022/02/04 14:00:54;;;;;;;25.17;14.73;;;;;;;4.15;41.43;93985.00;5023732;28;20047;-75
2022/02/04 14:03:22;;;;;;;29.63;16.23;;;;;;;4.60;41.55;93999.09;5029253;28;20159;-76
2022/02/04 14:06:00;;;;;;;25.55;16.10;;;;;;;4.26;41.95;93973.38;5020083;28;21236;-76
2022/02/04 14:08:33;;;;;;;27.40;15.85;;;;;;;4.90;41.38;93972.56;5027278;28;20049;-77
2022/02/04 14:11:02;;;;;;;27.85;15.70;;;;;;;5.25;40.57;93987.34;5026049;28;20226;-76
2022/02/04 14:13:29;;;;;;;27.77;15.07;;;;;;;5.53;40.71;93996.34;5023762;28;20411;-76
2022/02/04 14:15:58;;;;;;;27.13;15.05;;;;;;;5.65;39.73;93983.59;5025569;28;20612;-76
2022/02/04 14:18:26;;;;;;;30.70;16.58;;;;;;;5.75;39.30;93978.22;5026209;28;20036;-75
2022/02/04 14:20:51;;;;;;;31.02;17.58;;;;;;;5.96;38.78;94000.72;5024741;28;20041;-76
2022/02/04 14:23:17;;;;;;;28.65;16.25;;;;;;;5.82;38.31;93997.16;5024388;28;20140;-77
2022/02/04 14:25:58;;;;;;;24.55;15.70;;;;;;;5.97;38.42;94009.41;5025022;28;20045;-78
2022/02/04 14:28:29;;;;;;;32.35;18.38;;;;;;;6.18;38.39;94002.09;5024752;28;20035;-76
2022/02/04 14:31:03;;;;;;;27.10;15.38;;;;;;;6.09;38.78;93964.16;5017359;28;20021;-75
2022/02/04 15:02:48;;;;;;;29.38;16.60;;;;;;;5.40;40.03;94000.41;5014228;28;20045;-75
2022/02/04 15:05:20;;;;;;;22.55;14.77;;;;;;;5.54;39.65;93977.59;5015251;28;20034;-75
2022/02/04 15:07:47;;;;;;;22.85;13.77;;;;;;;5.79;40.00;93994.28;5022811;28;20528;-76
2022/02/04 15:10:26;;;;;;;26.20;13.50;;;;;;;5.84;40.09;93973.91;5020618;28;20044;-75
2022/02/04 15:12:51;;;;;;;19.20;12.07;;;;;;;5.65;39.86;93954.56;5016085;28;20101;-75
2022/02/04 15:15:17;;;;;;;31.75;14.48;;;;;;;5.79;39.90;93979.22;5024057;28;20025;-75
2022/02/04 15:17:42;;;;;;;25.52;14.23;;;;;;;5.37;40.34;93942.16;5018448;28;20178;-75
2022/02/04 15:20:08;;;;;;;29.58;15.90;;;;;;;5.37;39.80;93979.88;5017303;28;20029;-76
2022/02/04 15:22:33;;;;;;;27.15;14.63;;;;;;;5.46;40.47;93953.69;5017500;28;20030;-76
2022/02/04 15:25:08;;;;;;;27.42;15.55;;;;;;;5.70;40.14;93977.47;5020057;28;20037;-75
2022/02/04 15:27:36;;;;;;;23.58;14.63;;;;;;;5.52;40.21;93963.94;5020254;28;20021;-76
2022/02/04 15:30:03;;;;;;;28.83;15.25;;;;;;;5.68;40.18;93972.47;5019615;28;20032;-76
2022/02/04 15:32:29;;;;;;;27.05;15.75;;;;;;;5.72;39.84;93957.69;5011029;28;20033;-75
2022/02/04 15:34:55;;;;;;;33.50;18.30;;;;;;;5.72;39.85;93978.78;5024981;28;20320;-75
2022/02/04 15:37:20;;;;;;;35.95;19.42;;;;;;;5.60;40.34;93951.19;5016035;28;20729;-76
2022/02/04 15:39:46;;;;;;;41.30;23.48;;;;;;;5.63;40.01;93954.03;5020287;28;20179;-77
2022/02/04 15:42:13;;;;;;;44.28;24.13;;;;;;;5.71;39.80;93956.09;5022230;28;20564;-75
2022/02/04 15:44:57;;;;;;;47.08;23.75;;;;;;;5.58;40.46;93956.72;5023333;28;20037;-75
2022/02/04 15:47:34;;;;;;;39.08;20.83;;;;;;;5.75;39.70;93972.94;5021558;28;20029;-75
2022/02/04 15:57:57;;;;;;;50.65;21.95;;;;;;;5.11;40.56;93942.38;5017203;28;21031;-76
2022/02/04 16:03:35;;;;;;;38.60;21.23;;;;;;;4.92;41.12;93941.44;5020347;28;20043;-76
2022/02/04 16:06:04;;;;;;;38.00;19.92;;;;;;;5.14;40.77;93975.28;5022979;28;20489;-75
2022/02/04 16:08:30;;;;;;;47.53;22.08;;;;;;;4.80;41.43;93956.81;5013908;28;20049;-78
2022/02/04 16:11:00;;;;;;;40.55;20.08;;;;;;;4.69;42.25;93955.31;5017459;28;20045;-75
2022/02/04 16:13:43;;;;;;;44.42;22.77;;;;;;;4.70;42.29;93960.28;5024237;28;20144;-75
2022/02/04 16:18:56;;;;;;;40.28;20.75;;;;;;;4.13;42.10;93900.25;5017922;28;20037;-75
2022/02/04 16:21:32;;;;;;;37.25;18.77;;;;;;;4.48;42.21;93970.44;5017298;28;20041;-76
2022/02/04 16:24:23;;;;;;;39.85;20.38;;;;;;;4.41;42.66;93974.41;5020656;28;20121;-75
2022/02/04 16:26:58;;;;;;;42.08;19.25;;;;;;;4.40;42.62;93964.94;5017816;28;20517;-75
2022/02/04 16:29:24;;;;;;;41.70;18.30;;;;;;;4.34;42.55;93958.13;5017926;28;20553;-77
2022/02/04 16:31:50;;;;;;;31.52;17.35;;;;;;;4.44;42.46;93963.34;5020234;28;20033;-74
2022/02/04 16:34:18;;;;;;;35.97;18.17;;;;;;;4.37;42.73;93961.00;5026763;28;20528;-73
2022/02/04 16:36:46;;;;;;;31.27;17.48;;;;;;;4.37;42.78;93968.88;5015271;28;20408;-75
2022/02/04 16:39:13;;;;;;;31.75;17.40;;;;;;;4.50;42.68;93978.06;5024653;28;20047;-76
2022/02/04 16:41:53;;;;;;;38.15;19.10;;;;;;;4.35;43.21;93983.41;5019937;28;20033;-76
2022/02/04 16:44:19;;;;;;;36.70;18.63;;;;;;;4.44;43.24;93974.66;5024562;28;20029;-74
2022/02/04 16:46:46;;;;;;;32.83;18.02;;;;;;;4.37;43.21;93962.84;5010389;28;20037;-76
2022/02/04 16:49:11;;;;;;;31.10;17.58;;;;;;;4.52;43.38;93981.19;5016705;28;20043;-75
2022/02/04 16:51:40;;;;;;;35.28;20.15;;;;;;;4.54;43.40;93968.56;5026223;28;20029;-74
2022/02/04 16:54:09;;;;;;;36.08;17.88;;;;;;;4.34;43.50;93937.84;5021478;28;20064;-75
2022/02/04 16:56:34;;;;;;;33.50;18.40;;;;;;;4.38;42.97;93938.88;5027751;28;20053;-75
2022/02/04 16:59:00;;;;;;;26.83;16.33;;;;;;;4.50;42.76;93951.72;5018093;28;20073;-75
2022/02/04 17:01:28;;;;;;;33.25;20.08;;;;;;;4.60;42.91;93946.41;5028215;28;20121;-78
2022/02/04 17:03:53;;;;;;;44.63;23.13;;;;;;;4.73;42.44;93966.88;5018725;28;20037;-75
2022/02/04 17:06:20;;;;;;;40.10;22.23;;;;;;;4.51;42.51;93940.91;5022284;28;20174;-75
2022/02/04 17:08:48;;;;;;;39.30;20.92;;;;;;;4.44;42.25;93931.72;5019970;28;20405;-76
2022/02/04 17:11:20;;;;;;;54.97;27.30;;;;;;;4.61;42.06;93947.97;5019421;28;20037;-75
2022/02/04 17:13:47;;;;;;;75.72;37.67;;;;;;;4.74;41.94;93962.41;5015262;28;20124;-76
2022/02/04 17:16:12;;;;;;;105.07;41.28;;;;;;;4.50;42.00;93943.81;5025635;28;20041;-75
2022/02/04 17:18:38;;;;;;;42.65;22.08;;;;;;;4.53;42.01;93951.97;5021671;28;20025;-75
2022/02/04 17:21:04;;;;;;;46.50;24.90;;;;;;;4.57;42.48;93973.28;5019507;28;20033;-76
2022/02/04 17:23:40;;;;;;;47.67;25.25;;;;;;;4.53;42.08;93975.66;5018484;28;20037;-77
2022/02/04 17:26:06;;;;;;;39.53;20.92;;;;;;;4.20;42.43;93963.94;5014571;28;20124;-75
2022/02/04 17:28:31;;;;;;;43.60;22.15;;;;;;;4.40;42.42;93978.09;5018839;28;20412;-75
2022/02/04 17:30:58;;;;;;;41.75;23.38;;;;;;;4.25;42.44;93971.81;5019884;28;20314;-75
2022/02/04 17:33:24;;;;;;;41.08;20.65;;;;;;;4.21;42.32;93965.50;5016846;28;20544;-75
2022/02/04 17:35:50;;;;;;;37.17;21.52;;;;;;;4.10;42.24;93948.19;5021621;28;20419;-78
2022/02/04 17:38:17;;;;;;;34.83;19.15;;;;;;;4.21;42.15;93970.75;5022017;28;20033;-75
2022/02/04 17:40:42;;;;;;;42.17;21.13;;;;;;;4.23;42.29;93965.22;5018437;28;20522;-75
2022/02/04 17:43:07;;;;;;;50.47;29.70;;;;;;;4.04;42.17;93951.88;5022277;28;20048;-76
2022/02/04 17:45:33;;;;;;;47.40;24.67;;;;;;;4.19;42.00;93972.09;5021438;28;20800;-75
2022/02/04 17:50:39;;;;;;;35.60;20.63;;;;;;;4.14;42.16;93986.06;5014868;28;20044;-77
2022/02/04 17:53:12;;;;;;;40.25;18.50;;;;;;;3.87;42.30;93967.19;5026558;28;20135;-75
2022/02/04 17:55:47;;;;;;;33.28;19.67;;;;;;;3.80;42.23;93954.31;5026075;28;20033;-75
2022/02/04 17:58:26;;;;;;;32.28;17.88;;;;;;;4.03;42.13;93989.78;5020291;28;20365;-75
2022/02/04 18:01:11;;;;;;;38.15;16.02;;;;;;;3.90;42.02;93979.81;5026955;28;20044;-75
2022/02/04 18:09:05;;;;;;;32.53;14.80;;;;;;;3.70;42.11;93961.44;5023319;28;19956;-75
2022/02/04 18:11:33;;;;;;;36.33;18.15;;;;;;;3.28;43.04;93983.56;5024030;28;20125;-74
2022/02/04 18:13:58;;;;;;;28.75;15.75;;;;;;;3.47;42.77;93989.09;5019072;28;20049;-76
2022/02/04 18:16:24;;;;;;;28.70;16.00;;;;;;;3.02;42.53;93929.44;5032255;28;20073;-75
2022/02/04 18:18:49;;;;;;;32.35;18.60;;;;;;;3.33;42.95;93980.94;5020787;28;20728;-75